Flight Track Log - Related Links

Times and Time Zones

All times are in EST time to prevent confusion due to time zone crossing. See the UAL1082 flight status page for this flight to view local times or setup timezone preferences in your user account.

Time Position Orientation Groundspeed Altitude Reporting Facility
EST Latitude Longitude Course Direction KTS MPH feet Rate Location/Type
Sat 11:23:48 AM 36.1083 -115.1469 76° East 182 209 3,200  Level Los Angeles Center
Sat 11:25:09 AM 36.1347 -115.0600 69° East 235 270 6,300 2,412 Climbing Los Angeles Center
Sat 11:25:25 AM 36.1375 -115.0333 83° East 245 282 7,100 2,903 Climbing Los Angeles Center
Sat 11:26:00 AM 36.1833 -114.6474 90° East  Level FlightAware Approximate
Sat 11:26:11 AM 36.1447 -114.9631 83° East 263 303 9,300  Level Los Angeles Center
Sat 11:27:00 AM 36.1833 -114.4712 90° East  Level FlightAware Approximate
Sat 11:27:12 AM 36.1533 -114.8719 83° East 283 326 11,300  Level Los Angeles Center
Sat 11:28:00 AM 36.1833 -114.2949 90° East  Level FlightAware Approximate
Sat 11:28:14 AM 36.1719 -114.7608 78° East 327 376 13,700  Level Los Angeles Center
Sat 11:29:00 AM 36.1959 -114.1206 76° East  Level FlightAware Approximate
Sat 11:29:16 AM 36.1883 -114.6425 80° East 352 405 16,100  Level Los Angeles Center
Sat 11:30:17 AM 36.1883 -114.5419 90° East 362 417 18,000 2,341 Climbing Los Angeles Center
Sat 11:31:19 AM 36.1914 -114.3628 89° East 372 428 20,900 1,790 Climbing Los Angeles Center
Sat 11:32:21 AM 36.1933 -114.2217 89° East 406 467 21,700 1,161 Climbing Los Angeles Center
Sat 11:33:23 AM 36.2125 -114.0736 81° East 432 497 23,300 1,463 Climbing Los Angeles Center
Sat 11:34:24 AM 36.2308 -113.9200 82° East 447 514 24,700 1,122 Climbing Los Angeles Center
Sat 11:35:26 AM 36.2458 -113.7936 82° East 460 529 25,600 1,065 Climbing Los Angeles Center
Sat 11:36:28 AM 36.2692 -113.5975 82° East 478 550 26,900 1,415 Climbing Los Angeles Center
Sat 11:37:29 AM 36.2881 -113.4300 82° East 488 562 28,500 1,512 Climbing Los Angeles Center
Sat 11:38:31 AM 36.3125 -113.2314 81° East 488 562 30,000 1,210 Climbing Los Angeles Center
Sat 11:39:33 AM 36.3600 -113.0972 66° East 491 565 31,000 1,210 Climbing Los Angeles Center
Sat 11:40:35 AM 36.4281 -112.9128 65° Northeast 492 566 32,500 1,171 Climbing Los Angeles Center
Sat 11:41:36 AM 36.4850 -112.7583 65° Northeast 494 568 33,400 732 Climbing Los Angeles Center
Sat 11:42:38 AM 36.5425 -112.6017 65° Northeast 500 575 34,000 823 Climbing Los Angeles Center
Sat 11:43:40 AM 36.6008 -112.4431 65° Northeast 507 583 35,100 976 Climbing Los Angeles Center
Sat 11:44:41 AM 36.6578 -112.2858 66° East 503 579 36,000 829 Climbing Los Angeles Center
Sat 11:45:43 AM 36.7144 -112.1281 66° East 502 578 36,800 484 Climbing Los Angeles Center
Sat 11:46:45 AM 36.7717 -111.9708 66° East 501 577 37,000 97 Climbing Los Angeles Center
Sat 11:47:47 AM 36.8403 -111.7800 66° East 505 581 37,000  Level Los Angeles Center
Sat 11:48:48 AM 36.8967 -111.6189 66° East 507 583 37,000  Level Los Angeles Center
Sat 11:49:27 AM 36.9317 -111.5231 65° Northeast 506 582 37,000  Level Denver Center
Sat 11:50:29 AM 36.9861 -111.3644 67° East 502 578 37,000  Level Denver Center
Sat 11:51:30 AM 37.0422 -111.2061 66° East 500 575 37,000  Level Denver Center
Sat 11:52:32 AM 37.1089 -111.0147 66° East 503 579 37,000  Level Denver Center
Sat 11:53:34 AM 37.1631 -110.8578 67° East 494 568 37,000  Level Denver Center
Sat 11:54:36 AM 37.2175 -110.6997 67° East 494 568 37,000  Level Denver Center
Sat 11:55:37 AM 37.2722 -110.5411 67° East 496 571 37,000  Level Denver Center
Sat 11:56:39 AM 37.3264 -110.3833 67° East 495 570 37,000  Level Denver Center
Sat 11:57:41 AM 37.3797 -110.2247 67° East 494 568 37,000  Level Denver Center
Sat 11:58:43 AM 37.4406 -110.0450 67° East 497 572 37,000  Level Denver Center
Sat 11:59:45 AM 37.4925 -109.8914 67° East 497 572 37,000  Level Denver Center
Sat 12:00:46 PM 37.5528 -109.7117 67° East 499 574 37,000  Level Denver Center
Sat 12:01:48 PM 37.6039 -109.5556 68° East 501 577 37,000  Level Denver Center
Sat 12:02:50 PM 37.6644 -109.3731 67° East 505 581 37,000  Level Denver Center
Sat 12:03:52 PM 37.7167 -109.2139 67° East 510 587 37,000  Level Denver Center
Sat 12:04:53 PM 37.7675 -109.0558 68° East 508 585 37,000  Level Denver Center
Sat 12:05:55 PM 37.8236 -108.8689 69° East 508 585 37,000  Level Denver Center
Sat 12:06:57 PM 37.8578 -108.6981 76° East 517 595 37,000  Level Denver Center
Sat 12:07:59 PM 37.8992 -108.5025 75° East 518 596 37,000  Level Denver Center
Sat 12:09:01 PM 37.9342 -108.3339 75° East 516 594 37,000  Level Denver Center
Sat 12:10:02 PM 37.9758 -108.1403 75° East 513 590 37,000  Level Denver Center
Sat 12:11:04 PM 38.0108 -107.9717 75° East 514 592 37,000  Level Denver Center
Sat 12:12:06 PM 38.0447 -107.8028 76° East 517 595 37,000  Level Denver Center
Sat 12:13:08 PM 38.0817 -107.6231 75° East 515 593 37,000  Level Denver Center
Sat 12:14:10 PM 38.1208 -107.4272 76° East 513 590 37,000  Level Denver Center
Sat 12:15:11 PM 38.1539 -107.2606 76° East 511 588 37,000  Level Denver Center
Sat 12:16:13 PM 38.1942 -107.0633 75° East 510 587 37,000  Level Denver Center
Sat 12:17:15 PM 38.2281 -106.8864 76° East 514 592 37,000  Level Denver Center
Sat 12:18:17 PM 38.2647 -106.6997 76° East 514 592 37,000  Level Denver Center
Sat 12:19:18 PM 38.2975 -106.5311 76° East 514 592 37,000  Level Denver Center
Sat 12:20:20 PM 38.3297 -106.3567 77° East 516 594 37,000  Level Denver Center
Sat 12:21:22 PM 38.3694 -106.1522 76° East 517 595 37,000  Level Denver Center
Sat 12:22:24 PM 38.4008 -105.9808 77° East 517 595 37,000  Level Denver Center
Sat 12:23:26 PM 38.4361 -105.7986 76° East 515 593 37,000  Level Denver Center
Sat 12:24:28 PM 38.4675 -105.6217 77° East 514 592 37,000  Level Denver Center
Sat 12:25:29 PM 38.5014 -105.4442 76° East 516 594 37,000  Level Denver Center
Sat 12:26:31 PM 38.5394 -105.2283 77° East 520 598 37,000  Level Denver Center
Sat 12:27:33 PM 38.5722 -105.0472 77° East 524 603 37,000  Level Denver Center
Sat 12:28:35 PM 38.6047 -104.8669 77° East 524 603 37,000  Level Denver Center
Sat 12:29:37 PM 38.6364 -104.6850 77° East 526 605 37,000  Level Denver Center
Sat 12:30:39 PM 38.6683 -104.5036 77° East 527 606 37,000  Level Denver Center
Sat 12:31:41 PM 38.6989 -104.3222 78° East 525 604 37,000  Level Denver Center
Sat 12:32:43 PM 38.7361 -104.1067 77° East 522 601 37,000  Level Denver Center
Sat 12:33:45 PM 38.7661 -103.9272 78° East 520 598 37,000  Level Denver Center
Sat 12:34:46 PM 38.7964 -103.7506 78° East 524 603 37,000  Level Denver Center
Sat 12:35:48 PM 38.8306 -103.5439 78° East 528 608 37,000  Level Denver Center
Sat 12:37:02 PM 38.8586 -103.3753 78° East 531 611 37,000  Level Denver Center
Sat 12:38:05 PM 38.9206 -103.1236 72° East 533 613 37,000  Level Denver Center
Sat 12:39:07 PM 38.9797 -102.9492 66° East 535 616 37,000  Level Denver Center
Sat 12:40:09 PM 39.0375 -102.7731 67° East 535 616 37,000  Level Denver Center
Sat 12:41:11 PM 39.0944 -102.6003 67° East 539 620 37,000  Level Denver Center
Sat 12:42:13 PM 39.1597 -102.4006 67° East 543 625 37,000  Level Denver Center
Sat 12:43:15 PM 39.2161 -102.2281 67° East 544 626 37,000  Level Denver Center
Sat 12:44:17 PM 39.2808 -102.0264 67° East 545 627 37,000  Level Denver Center
Sat 12:45:19 PM 39.3342 -101.8603 67° East 548 631 37,000  Level Denver Center
Sat 12:46:21 PM 39.3986 -101.6583 68° East 546 628 37,000  Level Denver Center
Sat 12:47:23 PM 39.4575 -101.4839 66° East 552 635 37,000  Level Denver Center
Sat 12:48:25 PM 39.5269 -101.2822 66° East 551 634 37,000  Level Denver Center
Sat 12:49:27 PM 39.5844 -101.1064 67° East 554 638 37,000  Level Denver Center
Sat 12:50:29 PM 39.6511 -100.9033 67° East 550 633 37,000  Level Denver Center
Sat 12:51:31 PM 39.7089 -100.7292 67° East 550 633 37,000  Level Denver Center
Sat 12:52:33 PM 39.7747 -100.5269 67° East 548 631 37,000  Level Denver Center
Sat 12:53:35 PM 39.8325 -100.3497 67° East 555 639 37,000  Level Denver Center
Sat 12:54:37 PM 39.8969 -100.1475 67° East 553 636 37,000  Level Denver Center
Sat 12:55:39 PM 39.9569 -99.9597 67° East 560 644 37,000  Level Denver Center
Sat 12:56:41 PM 40.0167 -99.7719 67° East 561 646 37,000  Level Denver Center
Sat 12:58:13 PM 40.1111 -99.4700 68° East 562 647 37,000  Level Minneapolis Center
Sat 12:58:58 PM 40.1467 -99.3567 68° East 562 647 37,000  Level Denver Center
Sat 01:00:00 PM 40.2178 -99.1303 68° East 563 648 37,000  Level Denver Center
Sat 01:01:02 PM 40.2761 -98.9414 68° East 563 648 37,000  Level Denver Center
Sat 01:02:16 PM 40.3342 -98.7511 68° East 565 650 37,000  Level Denver Center
Sat 01:03:19 PM 40.4025 -98.5239 68° East 562 647 37,000  Level Denver Center
Sat 01:04:26 PM 40.4717 -98.2953 68° East 565 650 37,000  Level Minneapolis Center
Sat 01:05:27 PM 40.5294 -98.1025 68° East 568 654 37,000  Level Minneapolis Center
Sat 01:06:29 PM 40.5864 -97.9092 69° East 570 656 37,000  Level Minneapolis Center
Sat 01:07:30 PM 40.6436 -97.7164 69° East 569 655 37,000  Level Minneapolis Center
Sat 01:08:32 PM 40.7111 -97.4822 69° East 571 657 37,000  Level Minneapolis Center
Sat 01:09:34 PM 40.7667 -97.2944 69° East 576 663 37,000  Level Minneapolis Center
Sat 01:10:35 PM 40.8233 -97.0956 69° East 578 665 37,000  Level Minneapolis Center
Sat 01:11:37 PM 40.8792 -96.8986 69° East 576 663 37,000  Level Minneapolis Center
Sat 01:12:38 PM 40.9336 -96.6994 70° East 577 664 37,000  Level Minneapolis Center
Sat 01:13:40 PM 40.9678 -96.4961 77° East 573 659 37,000  Level Minneapolis Center
Sat 01:14:41 PM 41.0119 -96.2508 77° East 574 661 37,000  Level Minneapolis Center
Sat 01:15:43 PM 41.0464 -96.0492 77° East 571 657 37,000  Level Minneapolis Center
Sat 01:16:44 PM 41.0819 -95.8458 77° East 573 659 37,000  Level Minneapolis Center
Sat 01:17:46 PM 41.1169 -95.6422 77° East 575 662 37,000  Level Minneapolis Center
Sat 01:18:47 PM 41.1511 -95.4364 78° East 576 663 37,000  Level Minneapolis Center
Sat 01:19:49 PM 41.1861 -95.2303 77° East 577 664 37,000  Level Minneapolis Center
Sat 01:20:50 PM 41.2267 -94.9814 78° East 576 663 37,000  Level Minneapolis Center
Sat 01:21:52 PM 41.2597 -94.7767 78° East 572 658 37,000  Level Minneapolis Center
Sat 01:22:53 PM 41.2922 -94.5714 78° East 570 656 37,000  Level Minneapolis Center
Sat 01:23:55 PM 41.3250 -94.3650 78° East 570 656 37,000  Level Minneapolis Center
Sat 01:24:57 PM 41.3581 -94.1469 79° East 571 657 37,000  Level Minneapolis Center
Sat 01:25:58 PM 41.3911 -93.9394 78° East 572 658 37,000  Level Minneapolis Center
Sat 01:27:00 PM 41.4233 -93.7300 78° East 577 664 37,000  Level Minneapolis Center
Sat 01:28:01 PM 41.4497 -93.5200 80° East 577 664 37,000  Level Minneapolis Center
Sat 01:29:03 PM 41.4700 -93.3050 83° East 583 671 37,000  Level Minneapolis Center
Sat 01:30:04 PM 41.4903 -93.0925 83° East 580 667 37,000  Level Minneapolis Center
Sat 01:31:06 PM 41.5092 -92.8831 83° East 575 662 37,000  Level Minneapolis Center
Sat 01:32:07 PM 41.5333 -92.6286 83° East 575 662 37,000  Level Minneapolis Center
Sat 01:32:50 PM 41.5422 -92.5128 84° East 579 666 37,000  Level Chicago Center
Sat 01:33:51 PM 41.5647 -92.2572 83° East 582 670 37,000  Level Chicago Center
Sat 01:34:52 PM 41.5839 -92.0472 83° East 579 666 37,000  Level Chicago Center
Sat 01:35:54 PM 41.6019 -91.8344 83° East 582 670 37,000  Level Chicago Center
Sat 01:36:55 PM 41.6189 -91.6200 84° East 585 673 37,000  Level Chicago Center
Sat 01:37:56 PM 41.6350 -91.4069 84° East 585 673 37,000  Level Chicago Center
Sat 01:38:57 PM 41.6517 -91.1933 84° East 584 672 37,000  Level Chicago Center
Sat 01:39:59 PM 41.6681 -90.9797 84° East 584 672 37,000  Level Chicago Center
Sat 01:41:00 PM 41.6864 -90.7247 84° East 580 667 37,000  Level Chicago Center
Sat 01:42:01 PM 41.7006 -90.5156 85° East 579 666 37,000  Level Chicago Center
Sat 01:43:03 PM 41.7161 -90.3006 84° East 579 666 37,000  Level Chicago Center
Sat 01:44:04 PM 41.7308 -90.0867 85° East 576 663 37,000  Level Chicago Center
Sat 01:45:05 PM 41.7450 -89.8694 85° East 581 669 37,000  Level Chicago Center
Sat 01:46:06 PM 41.7586 -89.6528 85° East 583 671 37,000  Level Chicago Center
Sat 01:47:07 PM 41.7725 -89.4353 85° East 584 672 37,000  Level Chicago Center
Sat 01:48:09 PM 41.7861 -89.2167 85° East 587 676 37,000  Level Chicago Center
Sat 01:49:10 PM 41.7986 -88.9994 86° East 584 672 37,000  Level Chicago Center
Sat 01:50:11 PM 41.8117 -88.7572 86° East 584 672 37,000  Level Chicago Center
Sat 01:51:12 PM 41.8231 -88.5422 86° East 583 671 37,000  Level Chicago Center
Sat 01:52:14 PM 41.8339 -88.3286 86° East 579 666 37,000  Level Chicago Center
Sat 01:53:15 PM 41.8444 -88.1161 86° East 577 664 37,000  Level Chicago Center
Sat 01:54:16 PM 41.8558 -87.9053 86° East 572 658 37,000  Level Chicago Center
Sat 01:55:17 PM 41.8653 -87.6936 87° East 572 658 37,000  Level Chicago Center
Sat 01:56:19 PM 41.8772 -87.4397 86° East 572 658 37,000  Level Chicago Center
Sat 01:57:20 PM 41.8844 -87.2578 87° East 573 659 37,000  Level Chicago Center
Sat 01:58:21 PM 41.8928 -87.0447 87° East 572 658 37,000  Level Chicago Center
Sat 01:59:22 PM 41.9031 -86.7872 87° East 576 663 37,000  Level Chicago Center
Sat 02:00:23 PM 41.9108 -86.5728 87° East 576 663 37,000  Level Chicago Center
Sat 02:01:25 PM 41.9181 -86.3564 87° East 579 666 37,000  Level Chicago Center
Sat 02:02:26 PM 41.9258 -86.1389 87° East 583 671 37,000  Level Chicago Center
Sat 02:03:27 PM 41.9317 -85.9214 88° East 581 669 37,000  Level Chicago Center
Sat 02:04:28 PM 41.9389 -85.7022 87° East 583 671 37,000  Level Chicago Center
Sat 02:05:30 PM 41.9450 -85.4792 88° East 590 679 37,000 98 Level Chicago Center
Sat 02:06:31 PM 41.9503 -85.2569 88° East 589 678 37,200 492 Climbing Chicago Center
Sat 02:07:32 PM 41.9519 -85.0381 89° East 581 669 38,000 878 Climbing Chicago Center
Sat 02:08:34 PM 41.9492 -84.8208 91° East 580 667 39,000 488 Climbing Chicago Center
Sat 02:09:35 PM 41.9483 -84.6061 90° East 574 661 39,000  Level Chicago Center
Sat 02:10:36 PM 41.9475 -84.3922 90° East 573 659 39,000  Level Chicago Center
Sat 02:11:37 PM 41.9447 -84.1786 91° East 572 658 39,000  Level Chicago Center
Sat 02:12:39 PM 41.9428 -83.9589 91° East 572 658 39,000  Level Chicago Center
Sat 02:13:40 PM 41.9406 -83.7458 91° East 572 658 39,000  Level Chicago Center
Sat 02:15:10 PM 41.9336 -83.3861 91° East 569 655 39,000  Level Cleveland Center
Sat 02:16:12 PM 41.9339 -83.1722 90° East 568 654 39,000  Level Cleveland Center
Sat 02:17:13 PM 41.9314 -82.9550 91° East 566 651 39,000  Level Cleveland Center
Sat 02:18:14 PM 41.9292 -82.7442 91° East 569 655 39,000  Level Cleveland Center
Sat 02:19:16 PM 41.9278 -82.5322 90° East 572 658 39,000  Level Cleveland Center
Sat 02:20:17 PM 41.9256 -82.3214 91° East 567 652 39,000  Level Cleveland Center
Sat 02:21:19 PM 41.9208 -82.1000 92° East 569 655 39,000  Level Cleveland Center
Sat 02:22:20 PM 41.9183 -81.8839 91° East 569 655 39,000  Level Cleveland Center
Sat 02:23:21 PM 41.9036 -81.6708 95° East 567 652 39,000  Level Cleveland Center
Sat 02:24:23 PM 41.8833 -81.4581 97° East 566 651 39,000  Level Cleveland Center
Sat 02:25:24 PM 41.8644 -81.2475 97° East 563 648 39,000  Level Cleveland Center
Sat 02:26:25 PM 41.8444 -81.0381 97° East 561 646 39,000  Level Cleveland Center
Sat 02:27:27 PM 41.8256 -80.8289 97° East 558 642 39,000  Level Cleveland Center
Sat 02:28:28 PM 41.8061 -80.6219 97° East 555 639 39,000  Level Cleveland Center
Sat 02:29:29 PM 41.7833 -80.4150 98° East 556 640 39,000  Level Cleveland Center
Sat 02:30:31 PM 41.7647 -80.2081 97° East 555 639 39,000  Level Cleveland Center
Sat 02:31:32 PM 41.7425 -80.0003 98° East 557 641 39,000  Level Cleveland Center
Sat 02:32:33 PM 41.7211 -79.7931 98° East 558 642 39,000  Level Cleveland Center
Sat 02:33:35 PM 41.6981 -79.5739 98° East 559 643 39,000  Level Cleveland Center
Sat 02:34:36 PM 41.6753 -79.3694 98° East 558 642 39,000  Level Cleveland Center
Sat 02:35:37 PM 41.6517 -79.1642 99° East 560 644 39,000  Level Cleveland Center
Sat 02:36:39 PM 41.6289 -78.9575 98° East 561 646 39,000  Level Cleveland Center
Sat 02:37:40 PM 41.6011 -78.7128 99° East 558 642 39,000 -295 Level Cleveland Center
Sat 02:38:41 PM 41.5764 -78.5067 99° East 560 644 38,400 -1,574 Descending Cleveland Center
Sat 02:39:42 PM 41.5525 -78.3014 99° East 559 643 35,800 -2,829 Descending Cleveland Center
Sat 02:40:44 PM 41.5278 -78.0967 99° East 558 642 32,600 -1,986 Descending Cleveland Center
Sat 02:42:07 PM 41.4878 -77.8083 100° East 559 643 31,000 -671 Descending New York Center
Sat 02:43:07 PM 41.4600 -77.6058 100° East 559 643 31,000  Level New York Center
Sat 02:44:07 PM 41.4317 -77.4067 101° East 545 627 31,000  Level New York Center
Sat 02:45:07 PM 41.4042 -77.2294 102° East 545 627 31,000  Level New York Center
Sat 02:46:07 PM 41.3750 -77.0331 101° East 545 627 31,000 -1,450 Level New York Center
Sat 02:47:07 PM 41.3458 -76.8314 101° East 545 627 28,100 -2,650 Descending New York Center
Sat 02:48:07 PM 41.3031 -76.6453 107° East 540 621 25,700 -2,650 Descending New York Center
Sat 02:49:07 PM 41.2500 -76.4558 110° East 513 590 22,800 -2,550 Descending New York Center
Sat 02:50:07 PM 41.2058 -76.2839 109° East 499 574 20,600 -2,200 Descending New York Center
Sat 02:51:07 PM 41.1611 -76.1258 111° Southeast 469 540 18,400 -1,300 Descending New York Center
Sat 02:52:07 PM 41.1200 -75.9711 109° East 452 520 18,000 -900 Descending New York Center
Sat 02:53:07 PM 41.0842 -75.8361 109° East 438 504 16,600 -1,800 Descending New York Center
Sat 02:54:07 PM 41.0428 -75.6817 110° East 443 510 14,400 -1,850 Descending New York Center
Sat 02:55:07 PM 40.9989 -75.5356 112° Southeast 433 498 12,900 -1,200 Descending New York Center
Sat 02:56:07 PM 40.9606 -75.3956 110° East 416 479 12,000 -1,250 Descending New York Center
Sat 02:57:07 PM 40.9222 -75.2583 110° East 405 466 10,400 -1,100 Descending New York Center
Sat 02:58:07 PM 40.8856 -75.1269 110° East 374 430 9,800 -1,100 Descending New York Center
Sat 02:59:07 PM 40.8542 -75.0125 110° East 332 382 8,200 -1,500 Descending New York Center
Sat 03:00:07 PM 40.8244 -74.9119 111° Southeast 310 357 6,800 -1,100 Descending New York Center
Sat 03:01:07 PM 40.8386 -74.8058 80° East 282 325 6,000 -400 Descending New York Center
Sat 03:02:07 PM 40.8686 -74.7142 67° East 277 319 6,000  Level New York Center
Sat 03:03:07 PM 40.9036 -74.6064 67° East 285 328 6,000 -350 Level New York Center
Sat 03:04:07 PM 40.9333 -74.5175 66° East 290 334 5,300 -500 Descending New York Center
Sat 03:05:07 PM 40.9639 -74.4092 69° East 290 334 5,000 -150 Descending New York Center
Sat 03:06:07 PM 40.9833 -74.3197 74° East 284 327 5,000 -350 Level New York Center
Sat 03:07:07 PM 40.9947 -74.2131 82° East 279 321 4,300 -500 Descending New York Center
Sat 03:08:07 PM 40.9486 -74.1556 137° Southeast 217 250 4,000 -500 Descending New York Center
Sat 03:09:07 PM 40.9039 -74.1178 147° Southeast 210 242 3,300 -650 Descending New York Center
Sat 03:10:07 PM 40.8508 -74.0794 151° Southeast 198 228 2,700 -400 Descending New York Center
Sat 03:11:07 PM 40.8108 -74.0939 195° South 179 206 2,500 -550 Descending New York Center
Sat 03:12:07 PM 40.7664 -74.1192 203° Southwest 169 194 1,600 -814 Descending New York Center
Sat 03:13:27 PM 40.7167 -74.1500 205° Southwest 137 158 600 -750 Descending New York TRACON

Login

Don't have an account? Register now (free) for customized features, flight alerts, and more!